Archival Weather

Randolph Afb

Universal City, Texas (KRND)

Report from: Monday, September 26, 2022 2:55 AM CDT
Current time: Saturday, February 4, 2023 11:10 PM CST

Current weather
Weather history
Weather forecast

Temperature23.8°C (74.8°F)
Dew point20.9°C (69.6°F)
Winds Calm
Visibility10 mi. (16.1 km)
Clouds Sky clear
Altimeter29.98 in.Hg (1015 mB)
Relative humidity84 %
Density altitude1,288 ft. (393 m)
Sea-level pressure101.4 kPa (1014 mB, 29.95 in.Hg)
Remarks Fully automated report
Automated weather observing station with precipitation discriminator
Flight conditions Visual Meteorological Conditions
Raw dataKRND 260755Z AUTO 00000KT 10SM CLR 24/21 A2998 RMK AO2 SLP143 T02380209
An unhandled exception has occurred. See browser dev tools for details. Reload 🗙